Have a Safe July 4th! 

Flight Track Log - Related Links

Times and Time Zones

All times are in EDT time to prevent confusion due to time zone crossing. See the N960DL flight status page for this flight to view local times or setup timezone preferences in your user account.

Time Position Orientation Groundspeed Altitude Reporting Facility
EDT Latitude Longitude Course Direction KTS MPH feet Rate Location/Type
Tue 11:02:32 AM 33.6475 -84.4706 320° Northwest 447 514 2,300  Level Atlanta Center
Tue 11:03:17 AM 33.6667 -84.5333 290° West 252 290 4,600 3,086 Climbing Atlanta TRACON
Tue 11:04:00 AM 33.8081 -84.1667 North  Level FlightAware Approximate
Tue 11:04:17 AM 33.7167 -84.5833 320° Northwest 271 312 7,700  Level Atlanta TRACON
Tue 11:05:00 AM 33.9008 -84.2341 320° Northwest  Level FlightAware Approximate
Tue 11:06:00 AM 33.9878 -84.3210 320° Northwest  Level FlightAware Approximate
Tue 11:06:32 AM 33.9142 -84.5794 North 323 372 11,500  Level Atlanta Center
Tue 11:07:00 AM 34.0747 -84.4080 320° Northwest  Level FlightAware Approximate
Tue 11:07:32 AM 34.0081 -84.5825 358° North 354 407 14,000  Level Atlanta Center
Tue 11:08:32 AM 34.1167 -84.5883 357° North 379 436 15,900 2,150 Climbing Atlanta Center
Tue 11:09:32 AM 34.2333 -84.5917 359° North 404 465 18,300 2,400 Climbing Atlanta Center
Tue 11:10:32 AM 34.3503 -84.6100 353° North 416 479 20,700 2,200 Climbing Atlanta Center
Tue 11:11:32 AM 34.4669 -84.6383 349° North 421 484 22,700 2,100 Climbing Atlanta Center
Tue 11:12:32 AM 34.5878 -84.6669 349° North 437 503 24,900 2,050 Climbing Atlanta Center
Tue 11:13:32 AM 34.7003 -84.6981 347° North 429 494 26,800 2,050 Climbing Atlanta Center
Tue 11:14:32 AM 34.8172 -84.7269 349° North 424 488 29,000 1,900 Climbing Atlanta Center
Tue 11:15:32 AM 34.9297 -84.7558 348° North 424 488 30,600 1,500 Climbing Atlanta Center
Tue 11:16:32 AM 35.0422 -84.7819 349° North 414 476 32,000 700 Climbing Atlanta Center
Tue 11:17:32 AM 35.1547 -84.8111 348° North 414 476 32,000  Level Atlanta Center
Tue 11:18:32 AM 35.2608 -84.8400 347° North 408 470 32,000  Level Atlanta Center
Tue 11:19:32 AM 35.3692 -84.8792 344° North 403 464 32,000  Level Atlanta Center
Tue 11:20:32 AM 35.4731 -84.9314 338° Northwest 403 464 32,000  Level Atlanta Center
Tue 11:21:32 AM 35.5750 -84.9833 337° Northwest 403 464 32,000  Level Atlanta Center
Tue 11:22:32 AM 35.6831 -85.0383 338° Northwest 403 464 32,000  Level Atlanta Center
Tue 11:23:32 AM 35.7869 -85.0883 339° North 408 470 32,000  Level Atlanta Center
Tue 11:25:51 AM 36.0311 -85.1789 343° North 405 466 32,000  Level Indianapolis Center
Tue 11:26:53 AM 36.1600 -85.2292 343° North 404 465 32,000  Level Indianapolis Center
Tue 11:27:55 AM 36.2653 -85.2692 343° North 396 456 32,000  Level Indianapolis Center
Tue 11:28:57 AM 36.3708 -85.3103 343° North 396 456 32,000  Level Indianapolis Center
Tue 11:29:59 AM 36.4767 -85.3517 343° North 398 458 32,000  Level Indianapolis Center
Tue 11:31:01 AM 36.5814 -85.3931 342° North 395 455 32,000  Level Indianapolis Center
Tue 11:32:03 AM 36.6858 -85.4331 343° North 394 453 32,000  Level Indianapolis Center
Tue 11:33:04 AM 36.7903 -85.4753 342° North 394 453 32,000  Level Indianapolis Center
Tue 11:34:06 AM 36.9114 -85.5219 343° North 397 457 32,000  Level Indianapolis Center
Tue 11:35:09 AM 37.0183 -85.5650 342° North 401 461 32,000  Level Indianapolis Center
Tue 11:36:10 AM 37.1225 -85.6064 342° North 394 453 32,000  Level Indianapolis Center
Tue 11:37:12 AM 37.2278 -85.6483 342° North 395 455 32,000  Level Indianapolis Center
Tue 11:38:14 AM 37.3469 -85.6967 342° North 397 457 32,000  Level Indianapolis Center
Tue 11:39:16 AM 37.4517 -85.7397 342° North 397 457 32,000  Level Indianapolis Center
Tue 11:40:18 AM 37.5586 -85.7831 342° North 400 460 32,000  Level Indianapolis Center
Tue 11:41:19 AM 37.6647 -85.8250 343° North 400 460 32,000  Level Indianapolis Center
Tue 11:42:21 AM 37.7692 -85.8694 341° North 396 456 32,000  Level Indianapolis Center
Tue 11:43:23 AM 37.8744 -85.9114 343° North 397 457 32,000  Level Indianapolis Center
Tue 11:44:25 AM 37.9792 -85.9547 342° North 395 455 32,000  Level Indianapolis Center
Tue 11:45:27 AM 38.1044 -86.0072 342° North 398 458 32,000  Level Indianapolis Center
Tue 11:46:29 AM 38.2092 -86.0494 342° North 396 456 32,000  Level Indianapolis Center
Tue 11:47:31 AM 38.3125 -86.0931 342° North 392 451 32,000  Level Indianapolis Center
Tue 11:48:33 AM 38.4153 -86.1361 342° North 391 450 32,000  Level Indianapolis Center
Tue 11:49:35 AM 38.5183 -86.1792 342° North 391 450 32,000  Level Indianapolis Center
Tue 11:50:37 AM 38.6222 -86.2236 342° North 394 453 32,000  Level Indianapolis Center
Tue 11:51:39 AM 38.7447 -86.2744 342° North 386 444 32,000  Level Indianapolis Center
Tue 11:52:41 AM 38.8481 -86.3203 341° North 392 451 32,000  Level Indianapolis Center
Tue 11:53:42 AM 38.9514 -86.3625 342° North 390 449 32,000  Level Indianapolis Center
Tue 11:54:44 AM 39.0550 -86.4056 342° North 391 450 32,000  Level Indianapolis Center
Tue 11:55:46 AM 39.1569 -86.4506 341° North 389 448 32,000  Level Indianapolis Center
Tue 11:56:48 AM 39.2594 -86.4950 341° North 387 445 32,000  Level Indianapolis Center
Tue 11:57:50 AM 39.3622 -86.5400 341° North 389 448 32,000  Level Indianapolis Center
Tue 11:58:52 AM 39.4867 -86.5942 341° North 393 452 32,000  Level Indianapolis Center
Tue 11:59:54 AM 39.5892 -86.6386 342° North 388 447 32,000  Level Indianapolis Center
Tue 12:00:56 PM 39.6928 -86.6833 342° North 390 449 32,000  Level Indianapolis Center
Tue 12:01:58 PM 39.7961 -86.7272 342° North 391 450 32,000  Level Indianapolis Center
Tue 12:03:00 PM 39.8994 -86.7728 341° North 391 450 32,000  Level Indianapolis Center
Tue 12:04:02 PM 40.0025 -86.8161 342° North 388 447 32,000  Level Indianapolis Center
Tue 12:05:04 PM 40.1064 -86.8631 341° North 391 450 32,000  Level Indianapolis Center
Tue 12:06:05 PM 40.2308 -86.9189 341° North 393 452 32,000  Level Indianapolis Center
Tue 12:07:07 PM 40.3281 -86.9636 341° North 393 452 32,000  Level Chicago Center
Tue 12:08:09 PM 40.4306 -87.0086 342° North 391 450 32,000  Level Chicago Center
Tue 12:09:11 PM 40.5339 -87.0544 341° North 393 452 32,000  Level Chicago Center
Tue 12:10:15 PM 40.6625 -87.0789 352° North 393 452 32,000  Level Chicago Center
Tue 12:11:15 PM 40.7722 -87.0931 354° North 398 458 32,000  Level Chicago Center
Tue 12:12:17 PM 40.8822 -87.1064 355° North 400 460 32,000  Level Chicago Center
Tue 12:13:19 PM 40.9922 -87.1200 355° North 400 460 32,000  Level Chicago Center
Tue 12:14:22 PM 41.1028 -87.1333 355° North 402 463 32,000 -629 Level Chicago Center
Tue 12:15:23 PM 41.2356 -87.1519 354° North 401 461 30,700 -1,122 Descending Chicago Center
Tue 12:16:25 PM 41.3475 -87.1667 354° North 407 468 29,700 -919 Descending Chicago Center
Tue 12:17:27 PM 41.4589 -87.1831 354° North 407 468 28,800 -1,016 Descending Chicago Center
Tue 12:18:29 PM 41.5692 -87.1975 354° North 405 466 27,600 -1,403 Descending Chicago Center
Tue 12:19:31 PM 41.6806 -87.2125 354° North 407 468 25,900 -1,548 Descending Chicago Center
Tue 12:20:33 PM 41.8125 -87.2314 354° North 402 463 24,400 -919 Descending Chicago Center
Tue 12:21:35 PM 41.9208 -87.2139 North 399 459 24,000 -532 Descending Chicago Center
Tue 12:22:37 PM 42.0278 -87.1917 North 394 453 23,300 -677 Descending Chicago Center
Tue 12:23:39 PM 42.1325 -87.1681 North 387 445 22,600 -871 Descending Chicago Center
Tue 12:24:41 PM 42.2350 -87.1706 359° North 375 432 21,500 -1,306 Descending Chicago Center
Tue 12:25:43 PM 42.3506 -87.2150 344° North 365 420 19,900 -2,081 Descending Chicago Center
Tue 12:26:45 PM 42.4436 -87.2508 344° North 354 407 17,200 -2,758 Descending Chicago Center
Tue 12:27:47 PM 42.5272 -87.2839 344° North 337 388 14,200 -3,048 Descending Chicago Center
Tue 12:28:49 PM 42.6194 -87.3197 344° North 342 394 10,900 -2,016 Descending Chicago Center
Tue 12:29:52 PM 42.7069 -87.3714 337° Northwest 351 404 10,000 -432 Descending Chicago Center
Tue 12:30:54 PM 42.7692 -87.5008 303° West 330 380 10,000  Level Chicago Center
Tue 12:31:56 PM 42.8181 -87.6017 303° West 321 369 10,000 -581 Level Chicago Center
Tue 12:32:58 PM 42.8592 -87.6892 303° West 283 326 8,800 -1,403 Descending Chicago Center
Tue 12:34:00 PM 42.9000 -87.7728 304° West 268 308 7,100 -1,016 Descending Chicago Center
Tue 12:35:02 PM 42.9639 -87.8000 343° North 242 278 6,700 -823 Descending Chicago Center
Tue 12:36:04 PM 43.0278 -87.7800 13° North 236 272 5,400 -1,210 Descending Chicago Center
Tue 12:37:06 PM 43.0997 -87.7589 12° North 230 265 4,200 -677 Descending Chicago Center
Tue 12:38:08 PM 43.1283 -87.7992 314° West 191 220 4,000 -387 Descending Chicago Center
Tue 12:39:10 PM 43.0961 -87.8494 229° Southwest 187 215 3,400 -581 Descending Chicago Center

Login

Don't have an account? Register now (free) for customized features, flight alerts, and more!